Aviation Digital Data Service (ADDS)

Output produced by METARs form (1602 UTC 28 May 2016)
found at http://www.aviationweather.gov/adds/metars/
 
SEGU 281600Z 23008KT 9999 FEW023 BKN040 29/20 Q1013 NOSIG RMK A2993
SEGU 280933Z 2812/2912 20004KT 9999 SCT020 BKN090 
     TEMPO 2815/2818 16004KT SCT100 
     FM281800 12006KT 9999 SCT025 BKN090 
     FM290000 21010KT 9999 FEW020 SCT100 
     TEMPO 2908/2912 24004KT BKN020 TX32/2819Z TN23/2910Z
       
SEMT 281500Z 27008KT 9999 SCT020 29/23 Q1014 RMK A2995
SEMT 280933Z 2812/2912 21010KT 9999 SCT020 
     FM281500 27010KT CAVOK 
     FM290300 18005KT 9999 BKN020 TX31/2820Z TN24/2910Z SELT 280933Z 2812/2912 18006KT 9999 SCT033 SCT130 
     FM281800 18015KT 9999 SCT036 ST130 
     FM290200 16005KT 9999 BKN030 TX21/2819Z TN09/2811Z